CheckWX is a tool to help pilots better visualize weather data.  It is not intended as a substitute for an official pre-flight weather briefing.

03:26:41 UTC

BGGH TAF
Godthaab / Nuuk Airport
Nuuk, Greenland
TAF AMD BGGH 230002Z 2300/2302 18005KT 8000 -SN FEW005 BKN025 TEMPO 2300/2302 18015KT 1200 SHSN DRSN BKN008

Feb-23@
00:00 UTC

Feb-23 @ 00:00 UTC

Feb-23@
02:00 UTC

Feb-23 @ 02:00 UTC

TAF AMD BGGH 230002Z 2300/2302 18005KT 8000 -SN FEW005 BKN025
Wind
  • 180° at 5 KTS
Conditions
Light Snow
Cloud Levels
  • Few at 500' AGL
  • Broken at 2,500' AGL

Feb-23@
00:00 UTC

Feb-23 @ 00:00 UTC

Feb-23@
02:00 UTC

Feb-23 @ 02:00 UTC

TEMPO 2300/2302 18015KT 1200 SHSN DRSN BKN008

Temporary

Temporary Changes expected for less than half the time period

Wind
  • 180° at 15 KTS
Conditions
Snow, Low drifting Snow
Cloud Levels
  • Broken at 800' AGL